sensor_id;sensor_type;location;lat;lon;timestamp;temperature;humidity
2625;DHT22;1322;53.256;10.386;2024-03-08T00:01:18;3.40;99.90
2625;DHT22;1322;53.256;10.386;2024-03-08T00:03:44;3.20;99.90
2625;DHT22;1322;53.256;10.386;2024-03-08T00:06:10;3.20;99.90
2625;DHT22;1322;53.256;10.386;2024-03-08T00:08:35;3.20;99.90
2625;DHT22;1322;53.256;10.386;2024-03-08T00:11:01;3.20;99.90
2625;DHT22;1322;53.256;10.386;2024-03-08T00:13:26;3.10;99.90
2625;DHT22;1322;53.256;10.386;2024-03-08T00:15:52;3.10;99.90
2625;DHT22;1322;53.256;10.386;2024-03-08T00:18:18;3.00;99.90
2625;DHT22;1322;53.256;10.386;2024-03-08T00:20:43;3.00;99.90
2625;DHT22;1322;53.256;10.386;2024-03-08T00:23:10;3.00;99.90
2625;DHT22;1322;53.256;10.386;2024-03-08T00:25:36;3.00;99.90
2625;DHT22;1322;53.256;10.386;2024-03-08T00:28:02;3.10;99.90
2625;DHT22;1322;53.256;10.386;2024-03-08T00:30:30;3.20;99.90
2625;DHT22;1322;53.256;10.386;2024-03-08T00:32:56;3.10;99.90
2625;DHT22;1322;53.256;10.386;2024-03-08T00:35:22;2.80;99.90
2625;DHT22;1322;53.256;10.386;2024-03-08T00:37:48;2.90;99.90
2625;DHT22;1322;53.256;10.386;2024-03-08T00:40:14;2.90;99.90
2625;DHT22;1322;53.256;10.386;2024-03-08T00:42:39;2.90;99.90
2625;DHT22;1322;53.256;10.386;2024-03-08T00:45:07;2.90;99.90
2625;DHT22;1322;53.256;10.386;2024-03-08T00:47:33;2.80;99.90
2625;DHT22;1322;53.256;10.386;2024-03-08T00:49:59;2.90;99.90
2625;DHT22;1322;53.256;10.386;2024-03-08T00:52:25;2.80;99.90
2625;DHT22;1322;53.256;10.386;2024-03-08T00:54:50;2.80;99.90
2625;DHT22;1322;53.256;10.386;2024-03-08T00:57:16;2.70;99.90
2625;DHT22;1322;53.256;10.386;2024-03-08T00:59:42;2.70;99.90
2625;DHT22;1322;53.256;10.386;2024-03-08T01:02:07;2.60;99.90
2625;DHT22;1322;53.256;10.386;2024-03-08T01:04:36;2.60;99.90
2625;DHT22;1322;53.256;10.386;2024-03-08T01:07:01;2.50;99.90
2625;DHT22;1322;53.256;10.386;2024-03-08T01:09:27;2.50;99.90
2625;DHT22;1322;53.256;10.386;2024-03-08T01:11:54;2.60;99.90
2625;DHT22;1322;53.256;10.386;2024-03-08T01:14:21;2.70;99.90
2625;DHT22;1322;53.256;10.386;2024-03-08T01:16:56;2.60;99.90
2625;DHT22;1322;53.256;10.386;2024-03-08T01:19:22;2.60;99.90
2625;DHT22;1322;53.256;10.386;2024-03-08T01:21:48;2.60;99.90
2625;DHT22;1322;53.256;10.386;2024-03-08T01:24:13;2.70;99.90
2625;DHT22;1322;53.256;10.386;2024-03-08T01:26:39;2.70;99.90
2625;DHT22;1322;53.256;10.386;2024-03-08T01:29:05;2.60;99.90
2625;DHT22;1322;53.256;10.386;2024-03-08T01:31:31;2.50;99.90
2625;DHT22;1322;53.256;10.386;2024-03-08T01:33:57;2.50;99.90
2625;DHT22;1322;53.256;10.386;2024-03-08T01:36:23;2.40;99.90
2625;DHT22;1322;53.256;10.386;2024-03-08T01:38:48;2.40;99.90
2625;DHT22;1322;53.256;10.386;2024-03-08T01:41:14;2.40;99.90
2625;DHT22;1322;53.256;10.386;2024-03-08T01:43:41;2.40;99.90
2625;DHT22;1322;53.256;10.386;2024-03-08T01:46:07;2.30;99.90
2625;DHT22;1322;53.256;10.386;2024-03-08T01:48:34;2.20;99.90
2625;DHT22;1322;53.256;10.386;2024-03-08T01:51:00;2.30;99.90
2625;DHT22;1322;53.256;10.386;2024-03-08T01:53:30;2.30;99.90
2625;DHT22;1322;53.256;10.386;2024-03-08T01:55:59;2.20;99.90
2625;DHT22;1322;53.256;10.386;2024-03-08T01:58:29;2.10;99.90
2625;DHT22;1322;53.256;10.386;2024-03-08T02:00:56;2.10;99.90
2625;DHT22;1322;53.256;10.386;2024-03-08T02:03:22;2.10;99.90
2625;DHT22;1322;53.256;10.386;2024-03-08T02:05:49;2.10;99.90
2625;DHT22;1322;53.256;10.386;2024-03-08T02:08:15;2.10;99.90
2625;DHT22;1322;53.256;10.386;2024-03-08T02:10:42;2.10;99.90
2625;DHT22;1322;53.256;10.386;2024-03-08T02:13:09;2.00;99.90
2625;DHT22;1322;53.256;10.386;2024-03-08T02:18:21;2.10;99.90
2625;DHT22;1322;53.256;10.386;2024-03-08T02:20:48;2.20;99.90
2625;DHT22;1322;53.256;10.386;2024-03-08T02:23:14;2.30;99.90
2625;DHT22;1322;53.256;10.386;2024-03-08T02:25:40;2.20;99.90
2625;DHT22;1322;53.256;10.386;2024-03-08T02:28:09;2.20;99.90
2625;DHT22;1322;53.256;10.386;2024-03-08T02:30:35;2.20;99.90
2625;DHT22;1322;53.256;10.386;2024-03-08T02:33:01;2.20;99.90
2625;DHT22;1322;53.256;10.386;2024-03-08T02:35:26;2.20;99.90
2625;DHT22;1322;53.256;10.386;2024-03-08T02:37:52;2.10;99.90
2625;DHT22;1322;53.256;10.386;2024-03-08T02:40:18;2.10;99.90
2625;DHT22;1322;53.256;10.386;2024-03-08T02:42:44;2.20;99.90
2625;DHT22;1322;53.256;10.386;2024-03-08T02:45:09;2.20;99.90
2625;DHT22;1322;53.256;10.386;2024-03-08T02:47:35;2.20;99.90
2625;DHT22;1322;53.256;10.386;2024-03-08T02:50:01;2.10;99.90
2625;DHT22;1322;53.256;10.386;2024-03-08T02:52:27;2.20;99.90
2625;DHT22;1322;53.256;10.386;2024-03-08T02:54:52;2.30;99.90
2625;DHT22;1322;53.256;10.386;2024-03-08T02:57:18;2.30;99.90
2625;DHT22;1322;53.256;10.386;2024-03-08T02:59:44;2.20;99.90
2625;DHT22;1322;53.256;10.386;2024-03-08T03:02:11;2.20;99.90
2625;DHT22;1322;53.256;10.386;2024-03-08T03:04:40;2.10;99.90
2625;DHT22;1322;53.256;10.386;2024-03-08T03:07:05;2.10;99.90
2625;DHT22;1322;53.256;10.386;2024-03-08T03:09:31;2.10;99.90
2625;DHT22;1322;53.256;10.386;2024-03-08T03:11:58;2.10;99.90
2625;DHT22;1322;53.256;10.386;2024-03-08T03:14:24;2.00;99.90
2625;DHT22;1322;53.256;10.386;2024-03-08T03:16:52;2.10;99.90
2625;DHT22;1322;53.256;10.386;2024-03-08T03:19:17;2.10;99.90
2625;DHT22;1322;53.256;10.386;2024-03-08T03:21:43;2.10;99.90
2625;DHT22;1322;53.256;10.386;2024-03-08T03:24:09;2.10;99.90
2625;DHT22;1322;53.256;10.386;2024-03-08T03:26:38;2.10;99.90
2625;DHT22;1322;53.256;10.386;2024-03-08T03:29:07;2.10;99.90
2625;DHT22;1322;53.256;10.386;2024-03-08T03:31:45;2.10;99.90
2625;DHT22;1322;53.256;10.386;2024-03-08T03:34:12;2.00;99.90
2625;DHT22;1322;53.256;10.386;2024-03-08T03:36:38;2.00;99.90
2625;DHT22;1322;53.256;10.386;2024-03-08T03:39:11;1.90;99.90
2625;DHT22;1322;53.256;10.386;2024-03-08T03:41:41;1.90;99.90
2625;DHT22;1322;53.256;10.386;2024-03-08T03:44:07;2.00;99.90
2625;DHT22;1322;53.256;10.386;2024-03-08T03:46:33;2.00;99.90
2625;DHT22;1322;53.256;10.386;2024-03-08T03:48:59;1.90;99.90
2625;DHT22;1322;53.256;10.386;2024-03-08T03:51:25;1.90;99.90
2625;DHT22;1322;53.256;10.386;2024-03-08T03:53:51;1.90;99.90
2625;DHT22;1322;53.256;10.386;2024-03-08T03:56:18;1.90;99.90
2625;DHT22;1322;53.256;10.386;2024-03-08T03:58:44;1.90;99.90
2625;DHT22;1322;53.256;10.386;2024-03-08T04:01:12;1.90;99.90
2625;DHT22;1322;53.256;10.386;2024-03-08T04:03:41;1.80;99.90
2625;DHT22;1322;53.256;10.386;2024-03-08T04:06:08;1.70;99.90
2625;DHT22;1322;53.256;10.386;2024-03-08T04:08:34;1.70;99.90
2625;DHT22;1322;53.256;10.386;2024-03-08T04:11:00;1.70;99.90
2625;DHT22;1322;53.256;10.386;2024-03-08T04:13:26;1.70;99.90
2625;DHT22;1322;53.256;10.386;2024-03-08T04:15:52;1.70;99.90
2625;DHT22;1322;53.256;10.386;2024-03-08T04:18:17;1.70;99.90
2625;DHT22;1322;53.256;10.386;2024-03-08T04:20:46;1.60;99.90
2625;DHT22;1322;53.256;10.386;2024-03-08T04:23:11;1.60;99.90
2625;DHT22;1322;53.256;10.386;2024-03-08T04:25:37;1.50;99.90
2625;DHT22;1322;53.256;10.386;2024-03-08T04:28:03;1.50;99.90
2625;DHT22;1322;53.256;10.386;2024-03-08T04:30:28;1.50;99.90
2625;DHT22;1322;53.256;10.386;2024-03-08T04:32:55;1.60;99.90
2625;DHT22;1322;53.256;10.386;2024-03-08T04:35:21;1.50;99.90
2625;DHT22;1322;53.256;10.386;2024-03-08T04:37:46;1.60;99.90
2625;DHT22;1322;53.256;10.386;2024-03-08T04:40:12;1.60;99.90
2625;DHT22;1322;53.256;10.386;2024-03-08T04:42:39;1.60;99.90
2625;DHT22;1322;53.256;10.386;2024-03-08T04:45:06;1.60;99.90
2625;DHT22;1322;53.256;10.386;2024-03-08T04:47:33;1.50;99.90
2625;DHT22;1322;53.256;10.386;2024-03-08T04:49:59;1.40;99.90
2625;DHT22;1322;53.256;10.386;2024-03-08T04:52:25;1.50;99.90
2625;DHT22;1322;53.256;10.386;2024-03-08T04:54:51;1.40;99.90
2625;DHT22;1322;53.256;10.386;2024-03-08T04:57:16;1.40;99.90
2625;DHT22;1322;53.256;10.386;2024-03-08T04:59:45;1.30;99.90
2625;DHT22;1322;53.256;10.386;2024-03-08T05:02:10;1.20;99.90
2625;DHT22;1322;53.256;10.386;2024-03-08T05:04:36;1.10;99.90
2625;DHT22;1322;53.256;10.386;2024-03-08T05:07:02;1.10;99.90
2625;DHT22;1322;53.256;10.386;2024-03-08T05:09:29;1.10;99.90
2625;DHT22;1322;53.256;10.386;2024-03-08T05:11:57;1.10;99.90
2625;DHT22;1322;53.256;10.386;2024-03-08T05:14:25;1.20;99.90
2625;DHT22;1322;53.256;10.386;2024-03-08T05:16:50;1.20;99.90
2625;DHT22;1322;53.256;10.386;2024-03-08T05:19:17;1.10;99.90
2625;DHT22;1322;53.256;10.386;2024-03-08T05:21:51;1.10;99.90
2625;DHT22;1322;53.256;10.386;2024-03-08T05:24:17;1.20;99.90
2625;DHT22;1322;53.256;10.386;2024-03-08T05:26:44;1.10;99.90
2625;DHT22;1322;53.256;10.386;2024-03-08T05:29:09;1.20;99.90
2625;DHT22;1322;53.256;10.386;2024-03-08T05:31:48;1.10;99.90
2625;DHT22;1322;53.256;10.386;2024-03-08T05:34:15;1.10;99.90
2625;DHT22;1322;53.256;10.386;2024-03-08T05:36:41;1.10;99.90
2625;DHT22;1322;53.256;10.386;2024-03-08T05:39:10;1.10;99.90
2625;DHT22;1322;53.256;10.386;2024-03-08T05:41:38;1.00;99.90
2625;DHT22;1322;53.256;10.386;2024-03-08T05:44:03;0.90;99.90
2625;DHT22;1322;53.256;10.386;2024-03-08T05:46:29;1.00;99.90
2625;DHT22;1322;53.256;10.386;2024-03-08T05:48:55;1.00;99.90
2625;DHT22;1322;53.256;10.386;2024-03-08T05:51:23;1.10;99.90
2625;DHT22;1322;53.256;10.386;2024-03-08T05:53:49;1.10;99.90
2625;DHT22;1322;53.256;10.386;2024-03-08T05:56:15;1.10;99.90
2625;DHT22;1322;53.256;10.386;2024-03-08T05:58:40;1.20;99.90
2625;DHT22;1322;53.256;10.386;2024-03-08T06:01:06;1.20;99.90
2625;DHT22;1322;53.256;10.386;2024-03-08T06:03:34;1.20;99.90
2625;DHT22;1322;53.256;10.386;2024-03-08T06:05:59;1.20;99.90
2625;DHT22;1322;53.256;10.386;2024-03-08T06:08:25;1.20;99.90
2625;DHT22;1322;53.256;10.386;2024-03-08T06:10:55;1.10;99.90
2625;DHT22;1322;53.256;10.386;2024-03-08T06:13:21;1.20;99.90
2625;DHT22;1322;53.256;10.386;2024-03-08T06:15:47;1.30;99.90
2625;DHT22;1322;53.256;10.386;2024-03-08T06:18:12;1.30;99.90
2625;DHT22;1322;53.256;10.386;2024-03-08T06:20:38;1.40;99.90
2625;DHT22;1322;53.256;10.386;2024-03-08T06:23:03;1.30;99.90
2625;DHT22;1322;53.256;10.386;2024-03-08T06:25:29;1.40;99.90
2625;DHT22;1322;53.256;10.386;2024-03-08T06:27:55;1.60;99.90
2625;DHT22;1322;53.256;10.386;2024-03-08T06:30:20;1.70;99.90
2625;DHT22;1322;53.256;10.386;2024-03-08T06:32:46;1.80;99.90
2625;DHT22;1322;53.256;10.386;2024-03-08T06:35:12;1.80;99.90
2625;DHT22;1322;53.256;10.386;2024-03-08T06:37:38;1.80;99.90
2625;DHT22;1322;53.256;10.386;2024-03-08T06:40:04;1.80;99.90
2625;DHT22;1322;53.256;10.386;2024-03-08T06:42:30;2.00;99.90
2625;DHT22;1322;53.256;10.386;2024-03-08T06:45:00;2.00;99.90
2625;DHT22;1322;53.256;10.386;2024-03-08T06:47:33;2.10;99.90
2625;DHT22;1322;53.256;10.386;2024-03-08T06:49:59;2.00;99.90
2625;DHT22;1322;53.256;10.386;2024-03-08T06:52:25;2.10;99.90
2625;DHT22;1322;53.256;10.386;2024-03-08T06:54:51;2.20;99.90
2625;DHT22;1322;53.256;10.386;2024-03-08T06:57:18;2.20;99.90
2625;DHT22;1322;53.256;10.386;2024-03-08T06:59:43;2.40;99.90
2625;DHT22;1322;53.256;10.386;2024-03-08T07:02:10;2.40;99.90
2625;DHT22;1322;53.256;10.386;2024-03-08T07:04:35;2.40;99.90
2625;DHT22;1322;53.256;10.386;2024-03-08T07:07:06;2.40;99.90
2625;DHT22;1322;53.256;10.386;2024-03-08T07:09:35;2.50;99.90
2625;DHT22;1322;53.256;10.386;2024-03-08T07:12:01;2.40;99.90
2625;DHT22;1322;53.256;10.386;2024-03-08T07:14:27;2.50;99.90
2625;DHT22;1322;53.256;10.386;2024-03-08T07:16:52;2.60;99.90
2625;DHT22;1322;53.256;10.386;2024-03-08T07:19:18;2.70;99.90
2625;DHT22;1322;53.256;10.386;2024-03-08T07:21:44;2.80;99.90
2625;DHT22;1322;53.256;10.386;2024-03-08T07:24:11;2.70;99.90
2625;DHT22;1322;53.256;10.386;2024-03-08T07:26:43;2.40;99.90
2625;DHT22;1322;53.256;10.386;2024-03-08T07:29:09;2.50;99.90
2625;DHT22;1322;53.256;10.386;2024-03-08T07:31:34;2.60;99.90
2625;DHT22;1322;53.256;10.386;2024-03-08T07:34:11;2.60;99.90
2625;DHT22;1322;53.256;10.386;2024-03-08T07:36:36;2.50;99.90
2625;DHT22;1322;53.256;10.386;2024-03-08T07:39:02;2.60;99.90
2625;DHT22;1322;53.256;10.386;2024-03-08T07:41:27;2.80;99.90
2625;DHT22;1322;53.256;10.386;2024-03-08T07:43:55;2.90;99.90
2625;DHT22;1322;53.256;10.386;2024-03-08T07:46:21;2.90;99.90
2625;DHT22;1322;53.256;10.386;2024-03-08T07:48:46;2.90;99.90
2625;DHT22;1322;53.256;10.386;2024-03-08T07:51:16;3.10;99.90
2625;DHT22;1322;53.256;10.386;2024-03-08T07:53:46;3.10;99.90
2625;DHT22;1322;53.256;10.386;2024-03-08T07:56:12;3.20;99.90
2625;DHT22;1322;53.256;10.386;2024-03-08T07:58:39;3.20;99.90
2625;DHT22;1322;53.256;10.386;2024-03-08T08:01:06;3.20;99.90
2625;DHT22;1322;53.256;10.386;2024-03-08T08:03:32;3.20;99.90
2625;DHT22;1322;53.256;10.386;2024-03-08T08:05:57;3.20;99.90
2625;DHT22;1322;53.256;10.386;2024-03-08T08:08:23;3.30;99.90
2625;DHT22;1322;53.256;10.386;2024-03-08T08:10:51;3.20;99.90
2625;DHT22;1322;53.256;10.386;2024-03-08T08:13:17;3.40;99.90
2625;DHT22;1322;53.256;10.386;2024-03-08T08:15:43;3.30;99.90
2625;DHT22;1322;53.256;10.386;2024-03-08T08:18:09;3.30;99.90
2625;DHT22;1322;53.256;10.386;2024-03-08T08:20:35;3.40;99.90
2625;DHT22;1322;53.256;10.386;2024-03-08T08:23:00;3.40;99.90
2625;DHT22;1322;53.256;10.386;2024-03-08T08:25:26;3.60;99.90
2625;DHT22;1322;53.256;10.386;2024-03-08T08:27:52;3.80;99.90
2625;DHT22;1322;53.256;10.386;2024-03-08T08:30:19;3.80;99.90
2625;DHT22;1322;53.256;10.386;2024-03-08T08:32:46;3.90;99.90
2625;DHT22;1322;53.256;10.386;2024-03-08T08:35:12;4.00;99.90
2625;DHT22;1322;53.256;10.386;2024-03-08T08:37:41;4.10;99.90
2625;DHT22;1322;53.256;10.386;2024-03-08T08:40:07;4.20;99.90
2625;DHT22;1322;53.256;10.386;2024-03-08T08:42:40;4.10;99.90
2625;DHT22;1322;53.256;10.386;2024-03-08T08:45:06;4.10;99.90
2625;DHT22;1322;53.256;10.386;2024-03-08T08:47:37;4.30;99.90
2625;DHT22;1322;53.256;10.386;2024-03-08T08:50:04;4.40;99.90
2625;DHT22;1322;53.256;10.386;2024-03-08T08:52:31;4.40;99.90
2625;DHT22;1322;53.256;10.386;2024-03-08T08:54:57;4.40;99.90
2625;DHT22;1322;53.256;10.386;2024-03-08T08:57:23;4.40;99.90
2625;DHT22;1322;53.256;10.386;2024-03-08T08:59:48;4.30;99.90
2625;DHT22;1322;53.256;10.386;2024-03-08T09:02:14;4.50;99.90
2625;DHT22;1322;53.256;10.386;2024-03-08T09:04:42;4.60;99.90
2625;DHT22;1322;53.256;10.386;2024-03-08T09:07:08;4.60;99.90
2625;DHT22;1322;53.256;10.386;2024-03-08T09:09:34;4.70;99.90
2625;DHT22;1322;53.256;10.386;2024-03-08T09:12:00;4.90;99.90
2625;DHT22;1322;53.256;10.386;2024-03-08T09:14:26;4.80;99.90
2625;DHT22;1322;53.256;10.386;2024-03-08T09:16:52;4.70;99.90
2625;DHT22;1322;53.256;10.386;2024-03-08T09:19:17;4.80;99.90
2625;DHT22;1322;53.256;10.386;2024-03-08T09:21:45;4.80;99.90
2625;DHT22;1322;53.256;10.386;2024-03-08T09:24:10;4.90;99.90
2625;DHT22;1322;53.256;10.386;2024-03-08T09:26:36;4.90;99.90
2625;DHT22;1322;53.256;10.386;2024-03-08T09:29:02;4.90;99.90
2625;DHT22;1322;53.256;10.386;2024-03-08T09:31:28;4.90;99.90
2625;DHT22;1322;53.256;10.386;2024-03-08T09:33:53;5.00;99.90
2625;DHT22;1322;53.256;10.386;2024-03-08T09:36:19;4.90;99.90
2625;DHT22;1322;53.256;10.386;2024-03-08T09:38:45;4.70;99.90
2625;DHT22;1322;53.256;10.386;2024-03-08T09:41:12;4.80;99.90
2625;DHT22;1322;53.256;10.386;2024-03-08T09:43:38;5.00;99.90
2625;DHT22;1322;53.256;10.386;2024-03-08T09:46:04;5.20;99.90
2625;DHT22;1322;53.256;10.386;2024-03-08T09:48:32;5.30;99.90
2625;DHT22;1322;53.256;10.386;2024-03-08T09:50:58;5.50;99.90
2625;DHT22;1322;53.256;10.386;2024-03-08T09:53:23;5.40;99.90
2625;DHT22;1322;53.256;10.386;2024-03-08T09:55:49;5.40;99.90
2625;DHT22;1322;53.256;10.386;2024-03-08T09:58:16;5.40;99.90
2625;DHT22;1322;53.256;10.386;2024-03-08T10:00:47;5.50;99.90
2625;DHT22;1322;53.256;10.386;2024-03-08T10:03:13;5.50;99.90
2625;DHT22;1322;53.256;10.386;2024-03-08T10:05:40;5.50;99.90
2625;DHT22;1322;53.256;10.386;2024-03-08T10:08:06;5.60;99.90
2625;DHT22;1322;53.256;10.386;2024-03-08T10:10:36;5.60;99.90
2625;DHT22;1322;53.256;10.386;2024-03-08T10:13:01;5.50;99.90
2625;DHT22;1322;53.256;10.386;2024-03-08T10:15:27;5.50;99.90
2625;DHT22;1322;53.256;10.386;2024-03-08T10:17:55;5.40;99.90
2625;DHT22;1322;53.256;10.386;2024-03-08T10:20:22;5.60;99.90
2625;DHT22;1322;53.256;10.386;2024-03-08T10:22:49;5.70;99.90
2625;DHT22;1322;53.256;10.386;2024-03-08T10:25:15;5.70;99.90
2625;DHT22;1322;53.256;10.386;2024-03-08T10:27:41;5.80;99.90
2625;DHT22;1322;53.256;10.386;2024-03-08T10:30:16;5.80;99.90
2625;DHT22;1322;53.256;10.386;2024-03-08T10:32:46;5.90;99.90
2625;DHT22;1322;53.256;10.386;2024-03-08T10:35:12;5.80;99.90
2625;DHT22;1322;53.256;10.386;2024-03-08T10:37:58;5.80;99.90
2625;DHT22;1322;53.256;10.386;2024-03-08T10:40:28;5.80;99.90
2625;DHT22;1322;53.256;10.386;2024-03-08T10:42:56;6.00;99.90
2625;DHT22;1322;53.256;10.386;2024-03-08T10:45:40;6.00;99.90
2625;DHT22;1322;53.256;10.386;2024-03-08T10:50:47;6.00;99.90
2625;DHT22;1322;53.256;10.386;2024-03-08T10:53:20;6.10;99.90
2625;DHT22;1322;53.256;10.386;2024-03-08T10:55:47;6.00;99.90
2625;DHT22;1322;53.256;10.386;2024-03-08T10:58:13;6.00;99.90
2625;DHT22;1322;53.256;10.386;2024-03-08T11:00:39;6.10;99.90
2625;DHT22;1322;53.256;10.386;2024-03-08T11:03:06;6.20;99.90
2625;DHT22;1322;53.256;10.386;2024-03-08T11:05:40;6.40;99.90
2625;DHT22;1322;53.256;10.386;2024-03-08T11:08:16;6.50;99.90
2625;DHT22;1322;53.256;10.386;2024-03-08T11:11:02;6.60;99.90
2625;DHT22;1322;53.256;10.386;2024-03-08T11:16:48;6.40;99.90
2625;DHT22;1322;53.256;10.386;2024-03-08T11:18:49;6.40;99.90
2625;DHT22;1322;53.256;10.386;2024-03-08T11:21:14;6.40;99.90
2625;DHT22;1322;53.256;10.386;2024-03-08T11:23:40;6.50;99.90
2625;DHT22;1322;53.256;10.386;2024-03-08T11:26:27;6.50;99.90
2625;DHT22;1322;53.256;10.386;2024-03-08T11:32:16;6.60;99.90
2625;DHT22;1322;53.256;10.386;2024-03-08T11:34:48;6.80;99.90
2625;DHT22;1322;53.256;10.386;2024-03-08T11:37:19;6.80;99.90
2625;DHT22;1322;53.256;10.386;2024-03-08T11:39:53;7.00;99.90
2625;DHT22;1322;53.256;10.386;2024-03-08T11:42:25;7.00;99.90
2625;DHT22;1322;53.256;10.386;2024-03-08T11:44:52;6.90;99.90
2625;DHT22;1322;53.256;10.386;2024-03-08T11:47:18;7.00;99.90
2625;DHT22;1322;53.256;10.386;2024-03-08T11:49:45;7.00;99.90
2625;DHT22;1322;53.256;10.386;2024-03-08T11:52:13;7.10;99.90
2625;DHT22;1322;53.256;10.386;2024-03-08T11:54:47;7.20;99.90
2625;DHT22;1322;53.256;10.386;2024-03-08T11:57:18;7.20;99.90
2625;DHT22;1322;53.256;10.386;2024-03-08T11:59:50;7.20;99.90
2625;DHT22;1322;53.256;10.386;2024-03-08T12:02:16;7.20;99.90
2625;DHT22;1322;53.256;10.386;2024-03-08T12:04:56;7.40;99.90
2625;DHT22;1322;53.256;10.386;2024-03-08T12:07:26;7.30;99.90
2625;DHT22;1322;53.256;10.386;2024-03-08T12:10:18;7.20;99.90
2625;DHT22;1322;53.256;10.386;2024-03-08T12:12:49;7.30;99.90
2625;DHT22;1322;53.256;10.386;2024-03-08T12:15:17;7.40;99.90
2625;DHT22;1322;53.256;10.386;2024-03-08T12:17:53;7.30;99.90
2625;DHT22;1322;53.256;10.386;2024-03-08T12:22:50;7.30;99.90
2625;DHT22;1322;53.256;10.386;2024-03-08T12:25:22;7.40;99.90
2625;DHT22;1322;53.256;10.386;2024-03-08T12:27:48;7.30;99.90
2625;DHT22;1322;53.256;10.386;2024-03-08T12:30:24;7.40;99.90
2625;DHT22;1322;53.256;10.386;2024-03-08T12:33:00;7.30;99.90
2625;DHT22;1322;53.256;10.386;2024-03-08T12:35:27;7.40;99.90
2625;DHT22;1322;53.256;10.386;2024-03-08T12:37:57;7.60;99.90
2625;DHT22;1322;53.256;10.386;2024-03-08T12:40:31;7.50;99.90
2625;DHT22;1322;53.256;10.386;2024-03-08T12:42:58;7.40;99.90
2625;DHT22;1322;53.256;10.386;2024-03-08T12:45:24;7.50;99.90
2625;DHT22;1322;53.256;10.386;2024-03-08T12:47:51;7.60;99.90
2625;DHT22;1322;53.256;10.386;2024-03-08T12:50:17;7.50;99.90
2625;DHT22;1322;53.256;10.386;2024-03-08T12:52:43;7.50;99.90
2625;DHT22;1322;53.256;10.386;2024-03-08T12:55:09;7.60;99.90
2625;DHT22;1322;53.256;10.386;2024-03-08T12:57:35;7.70;99.90
2625;DHT22;1322;53.256;10.386;2024-03-08T13:00:03;7.70;99.90
2625;DHT22;1322;53.256;10.386;2024-03-08T13:02:30;7.70;99.90
2625;DHT22;1322;53.256;10.386;2024-03-08T13:04:57;7.70;99.90
2625;DHT22;1322;53.256;10.386;2024-03-08T13:07:24;7.80;99.90
2625;DHT22;1322;53.256;10.386;2024-03-08T13:09:54;7.70;99.90
2625;DHT22;1322;53.256;10.386;2024-03-08T13:12:23;7.60;99.90
2625;DHT22;1322;53.256;10.386;2024-03-08T13:14:49;7.60;99.90
2625;DHT22;1322;53.256;10.386;2024-03-08T13:17:16;7.70;99.90
2625;DHT22;1322;53.256;10.386;2024-03-08T13:19:52;7.80;99.90
2625;DHT22;1322;53.256;10.386;2024-03-08T13:22:22;7.80;99.90
2625;DHT22;1322;53.256;10.386;2024-03-08T13:24:52;7.90;99.90
2625;DHT22;1322;53.256;10.386;2024-03-08T13:27:18;7.90;99.90
2625;DHT22;1322;53.256;10.386;2024-03-08T13:29:48;7.90;99.90
2625;DHT22;1322;53.256;10.386;2024-03-08T13:32:17;7.90;99.90
2625;DHT22;1322;53.256;10.386;2024-03-08T13:34:43;7.90;99.90
2625;DHT22;1322;53.256;10.386;2024-03-08T13:37:14;7.90;99.90
2625;DHT22;1322;53.256;10.386;2024-03-08T13:39:45;7.90;99.90
2625;DHT22;1322;53.256;10.386;2024-03-08T13:42:12;7.90;99.90
2625;DHT22;1322;53.256;10.386;2024-03-08T13:44:45;8.00;99.90
2625;DHT22;1322;53.256;10.386;2024-03-08T13:47:19;8.00;99.90
2625;DHT22;1322;53.256;10.386;2024-03-08T13:49:45;8.10;99.90
2625;DHT22;1322;53.256;10.386;2024-03-08T13:52:11;8.10;99.90
2625;DHT22;1322;53.256;10.386;2024-03-08T13:54:42;8.10;99.90
2625;DHT22;1322;53.256;10.386;2024-03-08T13:57:07;8.10;99.90
2625;DHT22;1322;53.256;10.386;2024-03-08T13:59:34;8.10;99.90
2625;DHT22;1322;53.256;10.386;2024-03-08T14:02:01;8.10;99.90
2625;DHT22;1322;53.256;10.386;2024-03-08T14:04:28;8.10;99.90
2625;DHT22;1322;53.256;10.386;2024-03-08T14:06:54;8.10;99.90
2625;DHT22;1322;53.256;10.386;2024-03-08T14:09:25;8.20;99.90
2625;DHT22;1322;53.256;10.386;2024-03-08T14:11:55;8.00;99.90
2625;DHT22;1322;53.256;10.386;2024-03-08T14:14:23;8.10;99.90
2625;DHT22;1322;53.256;10.386;2024-03-08T14:16:52;8.20;99.90
2625;DHT22;1322;53.256;10.386;2024-03-08T14:19:19;8.20;99.90
2625;DHT22;1322;53.256;10.386;2024-03-08T14:21:46;8.30;99.90
2625;DHT22;1322;53.256;10.386;2024-03-08T14:24:16;8.30;99.90
2625;DHT22;1322;53.256;10.386;2024-03-08T14:26:42;8.40;99.90
2625;DHT22;1322;53.256;10.386;2024-03-08T14:29:08;8.40;99.90
2625;DHT22;1322;53.256;10.386;2024-03-08T14:31:38;8.30;99.90
2625;DHT22;1322;53.256;10.386;2024-03-08T14:34:04;8.30;99.90
2625;DHT22;1322;53.256;10.386;2024-03-08T14:36:30;8.40;99.90
2625;DHT22;1322;53.256;10.386;2024-03-08T14:38:56;8.40;99.90
2625;DHT22;1322;53.256;10.386;2024-03-08T14:41:21;8.30;99.90
2625;DHT22;1322;53.256;10.386;2024-03-08T14:43:50;8.30;99.90
2625;DHT22;1322;53.256;10.386;2024-03-08T14:46:18;8.40;99.90
2625;DHT22;1322;53.256;10.386;2024-03-08T14:48:55;8.40;99.90
2625;DHT22;1322;53.256;10.386;2024-03-08T14:51:22;8.30;99.90
2625;DHT22;1322;53.256;10.386;2024-03-08T14:53:53;8.10;99.90
2625;DHT22;1322;53.256;10.386;2024-03-08T14:56:20;8.10;99.90
2625;DHT22;1322;53.256;10.386;2024-03-08T14:58:46;8.20;99.90
2625;DHT22;1322;53.256;10.386;2024-03-08T15:01:15;8.20;99.90
2625;DHT22;1322;53.256;10.386;2024-03-08T15:03:41;8.20;99.90
2625;DHT22;1322;53.256;10.386;2024-03-08T15:06:10;8.20;99.90
2625;DHT22;1322;53.256;10.386;2024-03-08T15:08:36;8.30;99.90
2625;DHT22;1322;53.256;10.386;2024-03-08T15:11:03;8.30;99.90
2625;DHT22;1322;53.256;10.386;2024-03-08T15:13:29;8.20;99.90
2625;DHT22;1322;53.256;10.386;2024-03-08T15:16:07;8.20;99.90
2625;DHT22;1322;53.256;10.386;2024-03-08T15:18:34;8.20;99.90
2625;DHT22;1322;53.256;10.386;2024-03-08T15:21:06;8.20;99.90
2625;DHT22;1322;53.256;10.386;2024-03-08T15:23:36;8.30;99.90
2625;DHT22;1322;53.256;10.386;2024-03-08T15:26:02;8.10;99.90
2625;DHT22;1322;53.256;10.386;2024-03-08T15:28:29;8.10;99.90
2625;DHT22;1322;53.256;10.386;2024-03-08T15:31:05;8.10;99.90
2625;DHT22;1322;53.256;10.386;2024-03-08T15:33:35;8.20;99.90
2625;DHT22;1322;53.256;10.386;2024-03-08T15:36:08;8.10;99.90
2625;DHT22;1322;53.256;10.386;2024-03-08T15:38:38;8.20;99.90
2625;DHT22;1322;53.256;10.386;2024-03-08T15:41:06;8.10;99.90
2625;DHT22;1322;53.256;10.386;2024-03-08T15:43:39;8.10;99.90
2625;DHT22;1322;53.256;10.386;2024-03-08T15:46:05;8.10;99.90
2625;DHT22;1322;53.256;10.386;2024-03-08T15:48:32;8.00;99.90
2625;DHT22;1322;53.256;10.386;2024-03-08T15:50:59;8.10;99.90
2625;DHT22;1322;53.256;10.386;2024-03-08T15:53:28;8.10;99.90
2625;DHT22;1322;53.256;10.386;2024-03-08T15:55:58;8.10;99.90
2625;DHT22;1322;53.256;10.386;2024-03-08T15:58:25;8.10;99.90
2625;DHT22;1322;53.256;10.386;2024-03-08T16:00:51;8.10;99.90
2625;DHT22;1322;53.256;10.386;2024-03-08T16:03:19;8.00;99.90
2625;DHT22;1322;53.256;10.386;2024-03-08T16:05:46;8.00;99.90
2625;DHT22;1322;53.256;10.386;2024-03-08T16:08:12;8.00;99.90
2625;DHT22;1322;53.256;10.386;2024-03-08T16:10:47;8.00;99.90
2625;DHT22;1322;53.256;10.386;2024-03-08T16:13:20;8.00;99.90
2625;DHT22;1322;53.256;10.386;2024-03-08T16:15:47;7.90;99.90
2625;DHT22;1322;53.256;10.386;2024-03-08T16:18:13;7.90;99.90